This is the latest recevied weather packets stored in our database for station/object G7UKK-10. If no packets are shown the sender has not sent any weather packets the latest 1 day(s).
| Time | Temp. | Humidity | Pressure | Rain* | Wind** | Luminosity | Snow |
|---|---|---|---|---|---|---|---|
| 1777993816 | 12.22° C | 66% | 1015.9 hPa | 0 mm | 0.45 m/s, 95° | - | - |
| 1777992916 | 12.22° C | 66% | 1015.9 hPa | 0 mm | 0.45 m/s, 95° | - | - |
| 1777992016 | 11.67° C | 65% | 1016 hPa | 0 mm | 0 m/s | - | - |
| 1777991116 | 11.11° C | 67% | 1016 hPa | 0 mm | 0.45 m/s, 97° | - | - |
| 1777990216 | 11.67° C | 65% | 1016 hPa | 0 mm | 0.89 m/s, 97° | - | - |
| 1777989316 | 11.67° C | 67% | 1016.2 hPa | 0 mm | 0.45 m/s, 309° | - | - |
| 1777988416 | 11.11° C | 68% | 1016 hPa | 0 mm | 1.79 m/s, 326° | - | - |
| 1777987516 | 11.67° C | 64% | 1015.9 hPa | 0 mm | 1.79 m/s, 3° | - | - |
| 1777986616 | 11.67° C | 67% | 1015.9 hPa | 0 mm | 0.45 m/s, 153° | - | - |
| 1777985716 | 11.11° C | 66% | 1015.8 hPa | 0 mm | 1.79 m/s, 33° | - | - |
| 1777984816 | 11.11° C | 66% | 1016 hPa | 0 mm | 2.68 m/s, 349° | - | - |
| 1777983916 | 11.11° C | 67% | 1016 hPa | 0 mm | 2.24 m/s, 360° | - | - |
| 1777983016 | 11.11° C | 68% | 1016.1 hPa | 0 mm | 1.79 m/s, 355° | - | - |
| 1777982116 | 10.56° C | 69% | 1016 hPa | 0 mm | 2.24 m/s, 357° | - | - |
| 1777981216 | 11.11° C | 67% | 1016.3 hPa | 0 mm | 1.34 m/s, 79° | - | - |
| 1777980316 | 11.11° C | 66% | 1016 hPa | 0 mm | 1.79 m/s, 335° | - | - |
| 1777979416 | 11.11° C | 66% | 1016.2 hPa | 0 mm | 1.34 m/s, 332° | - | - |
| 1777978516 | 10.56° C | 65% | 1016.3 hPa | 0 mm | 1.79 m/s, 3° | - | - |
| 1777977616 | 10.56° C | 64% | 1016.3 hPa | 0 mm | 2.24 m/s, 2° | - | - |
| 1777976716 | 11.11° C | 63% | 1016.2 hPa | 0 mm | 2.68 m/s, 360° | - | - |
| 1777975816 | 10.56° C | 65% | 1016.1 hPa | 0 mm | 1.79 m/s, 296° | - | - |
| 1777974916 | 10.56° C | 65% | 1016 hPa | 0 mm | 3.13 m/s, 342° | - | - |
* Rain latest hour (hover to see other rain measurements)
** Current wind speed in m/s (hover to see current wind gust speed)